createdAt,value
2019-02-19T00:25:41.392Z,19.10
2019-02-19T00:59:25.915Z,20.80
2019-02-19T01:01:55.299Z,20.73
2019-02-19T01:04:24.526Z,20.70
2019-02-19T01:06:53.573Z,19.07
2019-02-19T01:09:22.661Z,21.27
2019-02-19T01:11:51.843Z,19.93
2019-02-19T01:14:20.963Z,19.93
2019-02-19T01:16:50.126Z,19.37
2019-02-19T01:19:19.285Z,18.93
2019-02-19T01:21:48.699Z,21.80
2019-02-19T01:24:17.802Z,20.60
2019-02-19T01:26:47.118Z,21.87
2019-02-19T01:29:16.629Z,19.10
2019-02-19T01:31:45.687Z,21.43
2019-02-19T01:34:14.798Z,20.37
2019-02-19T01:36:43.861Z,20.37
2019-02-19T01:39:13.070Z,20.07
2019-02-19T01:41:42.403Z,21.80
2019-02-19T01:44:11.483Z,20.87
2019-02-19T01:46:40.756Z,19.83
2019-02-19T01:49:09.964Z,21.03
2019-02-19T01:51:39.259Z,21.50
2019-02-19T01:54:08.507Z,21.70
2019-02-19T01:56:37.603Z,20.47
2019-02-19T01:59:06.762Z,20.97
2019-02-19T02:01:36.205Z,18.90
2019-02-19T02:04:05.391Z,20.70
2019-02-19T02:06:34.584Z,19.50
2019-02-19T02:09:05.591Z,22.20
2019-02-19T02:11:34.990Z,21.50
2019-02-19T02:14:04.161Z,20.20
2019-02-19T02:16:33.384Z,21.50
2019-02-19T02:19:02.592Z,23.60
2019-02-19T02:21:31.981Z,21.53
2019-02-19T02:24:01.076Z,21.73
2019-02-19T02:26:30.215Z,21.13
2019-02-19T02:28:59.542Z,19.90
2019-02-19T02:31:28.726Z,18.33
2019-02-19T02:33:57.950Z,17.97
2019-02-19T02:36:27.080Z,20.20
2019-02-19T02:38:56.286Z,19.53
2019-02-19T02:41:25.650Z,17.47
2019-02-19T02:43:54.805Z,17.57
2019-02-19T02:46:24.067Z,18.80
2019-02-19T02:48:53.360Z,19.30
2019-02-19T02:51:22.498Z,18.60
2019-02-19T02:53:51.766Z,20.13
2019-02-19T02:56:20.914Z,20.23
2019-02-19T02:58:50.211Z,20.63
2019-02-19T03:01:19.316Z,19.70
2019-02-19T03:03:48.657Z,19.37
2019-02-19T03:06:29.368Z,19.40
2019-02-19T03:08:58.822Z,18.37
2019-02-19T03:11:27.939Z,17.77
2019-02-19T03:13:57.146Z,18.60
2019-02-19T03:16:26.436Z,18.50
2019-02-19T03:18:55.679Z,16.97
2019-02-19T03:21:24.933Z,17.90
2019-02-19T03:23:54.030Z,18.47
2019-02-19T03:26:23.256Z,18.60
2019-02-19T03:28:52.481Z,18.47
2019-02-19T03:31:21.739Z,18.47
2019-02-19T03:33:50.933Z,18.77
2019-02-19T03:36:20.059Z,17.40
2019-02-19T03:38:49.481Z,15.93
2019-02-19T03:41:18.628Z,17.50
2019-02-19T03:43:47.714Z,18.50
2019-02-19T03:46:17.035Z,18.70
2019-02-19T03:48:46.122Z,17.33
2019-02-19T03:51:15.567Z,16.53
2019-02-19T03:53:44.780Z,18.90
2019-02-19T03:56:13.975Z,17.53
2019-02-19T03:58:43.135Z,17.77
2019-02-19T04:01:12.319Z,18.30
2019-02-19T04:03:41.833Z,18.20
2019-02-19T04:06:10.963Z,17.60
2019-02-19T04:08:40.055Z,17.20
2019-02-19T04:11:09.264Z,16.10
2019-02-19T04:13:38.504Z,17.90
2019-02-19T04:16:07.737Z,19.33
2019-02-19T04:18:36.888Z,19.20
2019-02-19T04:21:06.164Z,18.33
2019-02-19T04:23:37.618Z,19.17
2019-02-19T04:26:06.706Z,18.10
2019-02-19T04:28:35.808Z,17.40
2019-02-19T04:31:05.058Z,17.23
2019-02-19T04:33:34.358Z,17.43
2019-02-19T04:36:03.655Z,16.43
2019-02-19T04:38:32.878Z,17.53
2019-02-19T04:41:02.077Z,17.47
2019-02-19T04:43:31.154Z,18.17
2019-02-19T04:46:00.311Z,15.50
2019-02-19T04:48:29.479Z,16.43
2019-02-19T04:50:58.751Z,18.80
2019-02-19T04:53:27.966Z,16.87
2019-02-19T04:55:57.350Z,18.27
2019-02-19T04:58:26.394Z,17.50
2019-02-19T05:00:55.669Z,18.37
2019-02-19T05:03:24.987Z,19.40
2019-02-19T05:05:55.905Z,19.07
2019-02-19T05:08:25.207Z,16.90
2019-02-19T05:10:54.311Z,16.90
2019-02-19T05:13:23.606Z,16.10
2019-02-19T05:15:54.861Z,17.40
2019-02-19T05:18:24.125Z,18.90
2019-02-19T05:20:53.368Z,17.47
2019-02-19T05:23:22.468Z,18.30
2019-02-19T05:25:51.911Z,18.47
2019-02-19T05:28:21.078Z,18.63
2019-02-19T05:30:50.229Z,18.40
2019-02-19T05:33:19.498Z,20.07
2019-02-19T05:35:48.679Z,17.13
2019-02-19T05:38:17.855Z,17.53
2019-02-19T05:40:47.108Z,17.70
2019-02-19T05:43:16.222Z,17.20
2019-02-19T05:45:45.511Z,18.30
2019-02-19T05:48:14.628Z,16.90
2019-02-19T05:50:43.845Z,18.83
2019-02-19T05:53:13.307Z,18.60
2019-02-19T05:55:42.446Z,17.03
2019-02-19T05:58:11.603Z,18.20
2019-02-19T06:00:40.908Z,16.20
2019-02-19T06:03:10.226Z,19.23
2019-02-19T06:05:39.345Z,17.83
2019-02-19T06:08:08.580Z,17.50
2019-02-19T06:10:37.809Z,17.20
2019-02-19T06:13:07.565Z,15.93
2019-02-19T06:15:36.630Z,16.30
2019-02-19T06:18:06.267Z,18.13
2019-02-19T06:20:35.613Z,16.33
2019-02-19T06:23:04.746Z,16.47
2019-02-19T06:25:33.960Z,17.70
2019-02-19T06:28:03.288Z,17.13
2019-02-19T06:30:32.373Z,15.60
2019-02-19T06:33:01.833Z,16.03
2019-02-19T06:35:31.042Z,16.57
2019-02-19T06:38:00.296Z,16.40
2019-02-19T06:40:30.227Z,19.37
2019-02-19T06:42:59.755Z,16.63
2019-02-19T06:45:29.027Z,16.33
2019-02-19T06:47:58.137Z,16.80
2019-02-19T06:50:27.237Z,18.10
2019-02-19T06:52:56.519Z,20.10
2019-02-19T06:55:25.702Z,18.83
2019-02-19T06:57:54.895Z,21.97
2019-02-19T07:00:24.351Z,23.27
2019-02-19T07:03:01.243Z,22.13
2019-02-19T07:05:30.346Z,28.97
2019-02-19T07:07:59.612Z,29.50
2019-02-19T07:10:28.949Z,24.60
2019-02-19T07:12:58.204Z,16.37
2019-02-19T07:15:27.323Z,17.10
2019-02-19T07:17:56.582Z,17.70
2019-02-19T07:20:25.835Z,16.60
2019-02-19T07:22:55.130Z,16.73
2019-02-19T07:25:24.228Z,15.90
2019-02-19T07:27:53.434Z,15.30
2019-02-19T07:30:22.538Z,15.40
2019-02-19T07:32:51.945Z,14.50
2019-02-19T07:35:21.040Z,14.10
2019-02-19T07:37:51.151Z,15.53
2019-02-19T07:40:20.395Z,16.53
2019-02-19T07:42:49.917Z,15.27
2019-02-19T07:45:21.004Z,16.07
2019-02-19T07:47:50.359Z,15.70
2019-02-19T07:50:19.515Z,15.73
2019-02-19T07:52:48.620Z,15.70
2019-02-19T07:55:17.760Z,14.57
2019-02-19T07:57:50.023Z,16.10
2019-02-19T08:00:19.275Z,13.80
2019-02-19T08:02:48.620Z,15.30
2019-02-19T08:05:17.962Z,15.93
2019-02-19T08:07:47.094Z,16.20
2019-02-19T08:10:16.196Z,15.00
2019-02-19T08:12:45.351Z,15.93
2019-02-19T08:15:14.952Z,16.37
2019-02-19T08:17:44.587Z,16.27
2019-02-19T08:20:16.174Z,16.07
2019-02-19T08:22:45.065Z,16.50
2019-02-19T08:25:14.275Z,17.57
2019-02-19T08:27:43.623Z,19.10
2019-02-19T08:30:12.763Z,18.23
2019-02-19T08:32:42.023Z,18.10
2019-02-19T08:35:11.488Z,19.17
2019-02-19T08:37:40.606Z,19.00
2019-02-19T08:40:10.117Z,20.10
2019-02-19T08:42:39.235Z,17.83
2019-02-19T08:45:08.894Z,19.40
2019-02-19T08:47:42.628Z,18.27
2019-02-19T08:50:09.362Z,19.13
2019-02-19T08:52:38.682Z,18.77
2019-02-19T08:55:07.923Z,16.90
2019-02-19T08:57:37.123Z,19.10
2019-02-19T09:00:07.612Z,18.60
2019-02-19T09:02:36.702Z,18.10
2019-02-19T09:05:06.037Z,18.80
2019-02-19T09:07:35.185Z,16.90
2019-02-19T09:10:04.457Z,16.20
2019-02-19T09:12:33.538Z,14.10
2019-02-19T09:15:02.599Z,11.57
2019-02-19T09:17:32.161Z,11.17
2019-02-19T09:20:01.296Z,12.33
2019-02-19T09:22:30.431Z,11.37
2019-02-19T09:24:59.510Z,11.77
2019-02-19T09:27:28.662Z,10.50
2019-02-19T09:29:58.075Z,10.60
2019-02-19T09:32:27.237Z,11.10
2019-02-19T09:34:56.485Z,12.00
2019-02-19T09:37:25.670Z,11.90
2019-02-19T09:39:54.796Z,11.97
2019-02-19T09:42:24.131Z,11.50
2019-02-19T09:44:53.231Z,11.10
2019-02-19T09:47:22.568Z,11.10
2019-02-19T09:49:51.723Z,10.80
2019-02-19T09:52:20.947Z,10.70
2019-02-19T09:54:50.145Z,10.90
2019-02-19T09:57:19.404Z,11.00
2019-02-19T09:59:48.589Z,11.17
2019-02-19T10:02:17.761Z,11.53
2019-02-19T10:04:47.063Z,10.13
2019-02-19T10:07:16.391Z,9.93
2019-02-19T10:09:45.503Z,10.53
2019-02-19T10:12:14.894Z,10.60
2019-02-19T10:14:44.047Z,11.13
2019-02-19T10:17:13.203Z,11.23
2019-02-19T10:19:42.362Z,10.50
2019-02-19T10:22:11.520Z,11.57
2019-02-19T10:24:40.689Z,10.33
2019-02-19T10:27:09.976Z,10.93
2019-02-19T10:29:39.216Z,11.10
2019-02-19T10:32:08.863Z,10.10
2019-02-19T10:34:37.988Z,10.83
2019-02-19T10:37:07.107Z,11.00
2019-02-19T10:39:36.398Z,11.33
2019-02-19T10:42:05.473Z,10.40
2019-02-19T10:44:34.713Z,9.97
2019-02-19T10:47:03.929Z,12.03
2019-02-19T10:49:33.148Z,10.23
2019-02-19T10:52:02.471Z,11.20
2019-02-19T10:54:31.736Z,11.10
2019-02-19T10:57:01.103Z,10.87
2019-02-19T10:59:30.458Z,11.10
2019-02-19T11:01:59.581Z,10.50
2019-02-19T11:04:28.687Z,11.87
2019-02-19T11:06:57.791Z,11.70
2019-02-19T11:09:26.889Z,10.23
2019-02-19T11:11:58.077Z,11.93
2019-02-19T11:14:27.229Z,11.63
2019-02-19T11:16:56.321Z,12.13
2019-02-19T11:20:11.160Z,11.53
2019-02-19T11:37:33.637Z,12.80
2019-02-19T11:53:41.468Z,13.70
2019-02-19T11:56:10.855Z,12.50
2019-02-19T11:58:40.251Z,14.77
2019-02-19T12:01:10.351Z,14.17
2019-02-19T12:03:39.580Z,13.10
2019-02-19T12:06:08.849Z,13.80
2019-02-19T12:08:39.251Z,13.80
2019-02-19T12:11:08.526Z,13.30
2019-02-19T12:13:40.592Z,13.00
2019-02-19T12:16:09.711Z,12.80
2019-02-19T12:18:45.916Z,13.30
2019-02-19T12:21:10.706Z,13.30
2019-02-19T12:23:40.251Z,13.23
2019-02-19T12:26:09.660Z,14.77
2019-02-19T12:28:38.760Z,14.00
2019-02-19T12:31:07.889Z,15.00
2019-02-19T12:33:37.036Z,14.20
2019-02-19T12:36:06.198Z,13.67
2019-02-19T12:38:35.337Z,13.83
2019-02-19T12:41:04.792Z,14.10
2019-02-19T12:43:34.015Z,13.83
2019-02-19T12:46:03.116Z,14.50
2019-02-19T12:48:32.532Z,13.30
2019-02-19T12:51:01.919Z,14.37
2019-02-19T12:53:31.195Z,14.10
2019-02-19T12:56:00.436Z,14.40
2019-02-19T12:58:31.575Z,13.83
2019-02-19T13:01:00.819Z,14.00
2019-02-19T13:03:30.172Z,15.47
2019-02-19T13:05:59.706Z,14.47
2019-02-19T13:08:29.006Z,14.20
2019-02-19T13:10:58.238Z,14.30
2019-02-19T13:13:27.332Z,14.30
2019-02-19T13:15:56.622Z,15.47
2019-02-19T13:18:26.073Z,14.47
2019-02-19T13:20:55.272Z,14.47
2019-02-19T13:23:24.379Z,13.30
2019-02-19T13:25:53.441Z,14.83
2019-02-19T13:28:22.839Z,14.23
2019-02-19T13:34:23.427Z,15.50
2019-02-19T13:36:52.885Z,15.17
2019-02-19T13:39:22.327Z,14.80
2019-02-19T13:41:51.485Z,14.57
2019-02-19T13:44:20.727Z,14.77
2019-02-19T13:46:50.241Z,13.70
2019-02-19T13:49:19.337Z,14.87
2019-02-19T13:51:48.622Z,16.27
2019-02-19T13:54:31.881Z,14.03
2019-02-19T13:57:01.364Z,14.97
2019-02-19T13:59:30.579Z,14.03
2019-02-19T14:02:00.058Z,15.73
2019-02-19T14:04:29.175Z,14.80
2019-02-19T14:06:59.282Z,15.23
2019-02-19T14:09:28.522Z,16.83
2019-02-19T14:11:57.839Z,15.30
2019-02-19T14:14:55.208Z,15.73
2019-02-19T14:17:24.704Z,16.40
2019-02-19T14:19:58.598Z,16.27
2019-02-19T14:22:46.655Z,17.03
2019-02-19T14:25:40.459Z,15.90
2019-02-19T14:28:27.326Z,16.40
2019-02-19T14:31:24.590Z,16.37
2019-02-19T14:34:15.609Z,15.67
2019-02-19T14:37:06.899Z,15.60
2019-02-19T14:39:58.016Z,16.80
2019-02-19T14:42:46.209Z,15.10
2019-02-19T14:45:34.314Z,16.33
2019-02-19T14:48:31.979Z,14.97
2019-02-19T14:51:38.558Z,14.90
2019-02-19T14:54:25.477Z,15.40
2019-02-19T14:57:25.392Z,15.07
2019-02-19T15:00:12.455Z,16.50
2019-02-19T15:02:59.766Z,16.60
2019-02-19T15:05:46.826Z,16.03
2019-02-19T15:08:48.257Z,16.70
2019-02-19T15:11:39.484Z,16.97
2019-02-19T15:14:21.725Z,16.80
2019-02-19T15:17:08.554Z,18.90
2019-02-19T15:19:49.805Z,16.67
2019-02-19T15:22:29.678Z,18.87
2019-02-19T15:25:12.332Z,16.00
2019-02-19T15:28:10.602Z,16.30
2019-02-19T15:30:53.827Z,17.10
2019-02-19T15:33:39.819Z,17.77
2019-02-19T15:36:28.167Z,15.63
2019-02-19T15:39:19.121Z,19.63
2019-02-19T15:42:13.286Z,18.27
2019-02-19T15:45:12.108Z,18.33
2019-02-19T15:47:59.570Z,17.27
2019-02-19T15:50:47.636Z,16.80
2019-02-19T15:53:38.929Z,16.60
2019-02-19T15:56:36.423Z,17.60
2019-02-19T15:59:23.196Z,16.10
2019-02-19T16:02:20.404Z,17.27
2019-02-19T16:05:17.688Z,16.27
2019-02-19T16:08:15.784Z,17.30
2019-02-19T16:10:58.782Z,17.60
2019-02-19T16:13:50.229Z,18.47
2019-02-19T16:16:39.080Z,18.63
2019-02-19T16:19:16.081Z,18.03
2019-02-19T16:21:53.311Z,16.80
2019-02-19T16:24:41.084Z,18.53
2019-02-19T16:27:28.100Z,17.63
2019-02-19T16:30:06.853Z,15.40
2019-02-19T16:32:53.555Z,16.80
2019-02-19T16:35:43.584Z,17.00
2019-02-19T16:38:25.944Z,19.27
2019-02-19T16:41:05.289Z,17.33
2019-02-19T16:43:57.723Z,17.80
2019-02-19T16:46:44.671Z,17.27
2019-02-19T16:49:35.642Z,19.93
2019-02-19T16:52:29.519Z,17.90
2019-02-19T16:55:17.747Z,18.97
2019-02-19T16:58:03.077Z,17.97
2019-02-19T17:00:37.647Z,19.00
2019-02-19T17:03:29.081Z,20.20
2019-02-19T17:06:26.265Z,20.93
2019-02-19T17:09:17.526Z,23.23
2019-02-19T17:12:05.573Z,23.63
2019-02-19T17:14:57.468Z,23.00
2019-02-19T17:17:45.570Z,20.63
2019-02-19T17:20:30.528Z,22.33
2019-02-19T17:23:08.940Z,24.90
2019-02-19T17:25:55.965Z,23.13
2019-02-19T17:28:37.128Z,22.00
2019-02-19T17:31:15.057Z,21.60
2019-02-19T17:33:57.090Z,22.07
2019-02-19T17:36:46.062Z,30.47
2019-02-19T17:39:37.637Z,45.10
2019-02-19T17:42:11.883Z,22.63
2019-02-19T17:45:12.680Z,19.63
2019-02-19T17:48:03.524Z,25.13
2019-02-19T17:50:57.157Z,25.50
2019-02-19T17:53:54.753Z,21.37
2019-02-19T17:56:33.368Z,23.90
2019-02-19T17:59:13.271Z,24.70
2019-02-19T18:02:05.846Z,26.00
2019-02-19T18:05:03.319Z,24.23
2019-02-19T18:07:55.533Z,20.17
2019-02-19T18:10:44.556Z,21.53
2019-02-19T18:13:31.914Z,22.60
2019-02-19T18:16:23.674Z,31.70
2019-02-19T18:18:53.903Z,28.23
2019-02-19T18:21:23.995Z,26.80
2019-02-19T18:23:53.271Z,24.43
2019-02-19T18:26:23.164Z,34.07
2019-02-19T18:28:52.856Z,32.73
2019-02-19T18:31:22.402Z,29.67
2019-02-19T18:33:51.651Z,27.87
2019-02-19T18:36:21.700Z,31.63
2019-02-19T18:38:51.433Z,27.10
2019-02-19T18:41:20.627Z,30.50
2019-02-19T18:43:51.404Z,26.70
2019-02-19T18:46:21.083Z,29.53
2019-02-19T18:48:51.404Z,27.80
2019-02-19T18:51:21.053Z,28.27
2019-02-19T18:53:50.519Z,29.40
2019-02-19T18:56:20.579Z,27.57
2019-02-19T18:58:49.877Z,26.27
2019-02-19T19:01:20.770Z,28.20
2019-02-19T19:03:52.639Z,27.73
2019-02-19T19:06:22.499Z,28.50
2019-02-19T19:08:52.222Z,28.30
2019-02-19T19:11:22.878Z,30.00
2019-02-19T19:13:52.085Z,25.10
2019-02-19T19:16:21.271Z,28.20
2019-02-19T19:18:50.601Z,26.40
2019-02-19T19:21:19.853Z,31.97
2019-02-19T19:23:49.225Z,23.40
2019-02-19T19:26:18.478Z,26.90
2019-02-19T19:28:47.634Z,28.33
2019-02-19T19:31:16.779Z,29.47
2019-02-19T19:33:46.487Z,29.73
2019-02-19T19:36:15.830Z,28.47
2019-02-19T19:38:45.099Z,33.43
2019-02-19T19:41:15.290Z,33.33
2019-02-19T19:43:44.516Z,31.00
2019-02-19T19:46:14.159Z,30.03
2019-02-19T19:48:45.890Z,30.67
2019-02-19T19:51:17.324Z,37.97
2019-02-19T19:53:45.675Z,27.93
2019-02-19T19:56:14.814Z,28.43
2019-02-19T19:58:44.190Z,25.90
2019-02-19T20:01:13.405Z,25.20
2019-02-19T20:03:42.657Z,30.00
2019-02-19T20:06:11.874Z,30.10
2019-02-19T20:08:41.246Z,30.40
2019-02-19T20:11:10.540Z,30.60
2019-02-19T20:13:40.412Z,28.90
2019-02-19T20:16:09.580Z,30.67
2019-02-19T20:18:39.436Z,31.00
2019-02-19T20:21:08.826Z,30.47
2019-02-19T20:23:38.098Z,27.63
2019-02-19T20:26:07.501Z,27.00
2019-02-19T20:28:36.867Z,24.73
2019-02-19T20:31:06.368Z,23.70
2019-02-19T20:33:37.295Z,22.27
2019-02-19T20:36:06.873Z,24.23
2019-02-19T20:38:36.212Z,24.07
2019-02-19T20:41:06.164Z,26.50
2019-02-19T20:43:35.514Z,26.67
2019-02-19T20:46:04.969Z,25.00
2019-02-19T20:48:34.123Z,27.37
2019-02-19T20:51:03.370Z,30.00
2019-02-19T20:53:32.479Z,35.40
2019-02-19T20:56:01.886Z,33.97
2019-02-19T20:58:31.130Z,36.33
2019-02-19T21:01:00.315Z,30.23
2019-02-19T21:03:33.469Z,30.50
2019-02-19T21:06:03.698Z,26.47
2019-02-19T21:08:33.046Z,26.47
2019-02-19T21:11:02.295Z,25.20
2019-02-19T21:13:32.113Z,25.47
2019-02-19T21:16:02.132Z,28.40
2019-02-19T21:18:31.854Z,28.07
2019-02-19T21:21:01.020Z,28.83
2019-02-19T21:23:30.338Z,26.70
2019-02-19T21:25:59.521Z,30.07
2019-02-19T21:28:28.734Z,31.80
2019-02-19T21:30:58.747Z,31.10
2019-02-19T21:33:27.868Z,30.13
2019-02-19T21:35:58.047Z,29.00
2019-02-19T21:38:27.422Z,30.20
2019-02-19T21:40:56.550Z,29.57
2019-02-19T21:43:25.746Z,31.60
2019-02-19T21:45:55.010Z,27.80
2019-02-19T21:48:25.154Z,28.50
2019-02-19T21:50:54.351Z,24.70
2019-02-19T21:53:23.655Z,24.47
2019-02-19T21:55:52.850Z,26.70
2019-02-19T21:58:21.970Z,31.33
2019-02-19T22:00:51.160Z,30.07
2019-02-19T22:03:20.688Z,29.37
2019-02-19T22:05:49.905Z,29.20
2019-02-19T22:08:19.105Z,31.87
2019-02-19T22:10:48.388Z,29.43
2019-02-19T22:13:17.707Z,29.07
2019-02-19T22:15:46.962Z,28.27
2019-02-19T22:18:16.260Z,27.57
2019-02-19T22:20:52.673Z,28.77
2019-02-19T22:23:22.356Z,29.53
2019-02-19T22:25:51.598Z,29.40
2019-02-19T22:28:22.862Z,26.90
2019-02-19T22:30:51.773Z,29.97
2019-02-19T22:33:21.489Z,29.40
2019-02-19T22:35:51.028Z,29.40
2019-02-19T22:38:20.372Z,29.43
2019-02-19T22:40:55.149Z,28.27
2019-02-19T22:43:20.712Z,29.60
2019-02-19T22:45:49.825Z,29.57
2019-02-19T22:48:19.409Z,29.20
2019-02-19T22:50:48.641Z,28.53
2019-02-19T22:53:35.336Z,28.33
2019-02-19T22:56:10.091Z,28.33
2019-02-19T22:58:39.488Z,27.77
2019-02-19T23:01:15.118Z,27.40
2019-02-19T23:03:44.551Z,29.20
2019-02-19T23:06:13.893Z,29.87
2019-02-19T23:08:43.106Z,28.03
2019-02-19T23:11:12.268Z,30.07
2019-02-19T23:13:41.785Z,29.40
2019-02-19T23:16:10.925Z,29.47
2019-02-19T23:18:40.056Z,29.57
2019-02-19T23:21:09.270Z,31.70
2019-02-19T23:23:38.433Z,32.10
2019-02-19T23:26:07.644Z,32.50
2019-02-19T23:28:36.988Z,33.50
2019-02-19T23:31:06.163Z,31.87
2019-02-19T23:33:35.403Z,31.27
2019-02-19T23:36:09.199Z,32.30
2019-02-19T23:38:38.525Z,29.97
2019-02-19T23:41:08.008Z,25.40
2019-02-19T23:43:37.303Z,28.30
2019-02-19T23:46:06.680Z,27.90
2019-02-19T23:48:35.795Z,26.70
2019-02-19T23:51:04.912Z,26.43
2019-02-19T23:53:34.386Z,26.60
2019-02-19T23:56:03.459Z,27.00
2019-02-19T23:58:32.536Z,26.53
